METAR AND TAF INFORMATION
METAR FOR ESMS
ADDS - METARS form results

(2002 UTC 03 August 2021)
Data provider http://aviationweather.gov/metar/data/
 
METAR text: ESMS 031950Z 20004KT CAVOK 12/09 Q1013
Conditions at: ESMS (MALMO/STURUP , SE) observed 1950 UTC 03 August 2021
Temperature: 12.0°C (54°F)
Dewpoint: 9.0°C (48°F) [RH = 82%]
Pressure (altimeter): 29.91 inches Hg (1013.0 mb)
Winds: from the SSW (200 degrees) at 5 MPH (4 knots; 2.1 m/s)
Visibility: 6 or more miles (10+ km)
Ceiling: ceiling and visibility are OK
Clouds: unknown
Weather: no significant weather observed at this time

METAR text: ESMS 031920Z 19005KT CAVOK 15/10 Q1013
Conditions at: ESMS (MALMO/STURUP , SE) observed 1920 UTC 03 August 2021
Temperature: 15.0°C (59°F)
Dewpoint: 10.0°C (50°F) [RH = 72%]
Pressure (altimeter): 29.91 inches Hg (1013.0 mb)
Winds: from the S (190 degrees) at 6 MPH (5 knots; 2.6 m/s)
Visibility: 6 or more miles (10+ km)
Ceiling: ceiling and visibility are OK
Clouds: unknown
Weather: no significant weather observed at this time

Forecast for: ESMS (MALMO/STURUP , SE)
Text: TAF ESMS 031701Z 0318/0418 28005KT 9999 SCT030
Forecast period: 1800 UTC 03 August 2021 to 1800 UTC 04 August 2021
Forecast type: FROM: standard forecast or significant change
Winds: from the W (280 degrees) at 6 MPH (5 knots; 2.6 m/s)
Visibility: 6 or more miles (10+ km)
Ceiling: at least 12,000 feet AGL
Clouds: scattered clouds at 3000 feet AGL
Weather: no significant weather forecast for this period

 AIRPORT MAP

 RUNWAY INFORMATION
Runway 11 Runway length 2615 ft Runway width 75 ft
Runway elevation 232 ft Runway displaced threshold 0 ft Runway heading 105
Runway 29 Runway length 2615 ft Runway width 75 ft
Runway elevation 228 ft Runway displaced threshold 0 ft Runway heading 285
Runway 17 Runway length 9186 ft Runway width 148 ft
Runway elevation 209 ft Runway displaced threshold 0 ft Runway heading 173
Runway 35 Runway length 9186 ft Runway width 148 ft
Runway elevation 236 ft Runway displaced threshold 0 ft Runway heading 353

 AIRPORT FREQUENCIES
Type APP Name MALMO CON Frequency 135.9 MHZ
Type ATIS Name ATIS Frequency 129.275 MHZ
Type TWR Name TWR Frequency 118.8 MHZ

 AIRPORT NEAR NAVIGATION AIDS
Type NDB Name Sturup Frequency 351 KHZ
Type NDB Name Sturup Frequency 420 KHZ
Type VOR-DME Name Sturup Frequency 113000 KHZ





Powered by Virtual Airlines Manager

Maps by Rafael Santos